createdAt,value
2023-08-25T00:01:32.198Z,4.20
2023-08-25T00:04:00.253Z,6.05
2023-08-25T00:06:28.194Z,6.35
2023-08-25T00:08:56.306Z,7.35
2023-08-25T00:11:24.498Z,5.07
2023-08-25T00:13:52.647Z,5.60
2023-08-25T00:16:20.651Z,5.93
2023-08-25T00:18:49.061Z,7.30
2023-08-25T00:21:17.271Z,5.60
2023-08-25T00:23:45.265Z,3.92
2023-08-25T00:26:13.400Z,6.55
2023-08-25T00:28:41.303Z,5.07
2023-08-25T00:31:09.389Z,4.62
2023-08-25T00:33:37.276Z,6.10
2023-08-25T00:36:05.313Z,5.97
2023-08-25T00:38:33.280Z,5.97
2023-08-25T00:41:01.204Z,7.00
2023-08-25T00:43:29.173Z,10.23
2023-08-25T00:45:57.162Z,6.55
2023-08-25T00:48:25.284Z,6.60
2023-08-25T00:50:53.922Z,5.60
2023-08-25T00:53:23.823Z,7.93
2023-08-25T00:55:52.651Z,9.35
2023-08-25T00:58:20.804Z,5.75
2023-08-25T01:00:49.911Z,6.40
2023-08-25T01:03:18.938Z,4.25
2023-08-25T01:05:50.748Z,7.20
2023-08-25T01:08:21.215Z,5.93
2023-08-25T01:10:56.146Z,5.07
2023-08-25T01:13:38.888Z,6.82
2023-08-25T01:16:09.579Z,4.43
2023-08-25T01:18:43.810Z,5.43
2023-08-25T01:21:12.893Z,5.53
2023-08-25T01:23:47.334Z,6.15
2023-08-25T01:26:15.779Z,10.02
2023-08-25T01:28:43.867Z,6.22
2023-08-25T01:31:12.193Z,5.97
2023-08-25T01:33:41.972Z,4.90
2023-08-25T01:36:31.596Z,5.57
2023-08-25T01:39:07.300Z,3.55
2023-08-25T01:41:46.943Z,5.32
2023-08-25T01:44:19.089Z,4.07
2023-08-25T01:46:50.949Z,6.78
2023-08-25T01:49:21.412Z,6.55
2023-08-25T01:51:50.066Z,5.57
2023-08-25T01:54:18.070Z,4.32
2023-08-25T01:56:45.964Z,6.00
2023-08-25T01:59:13.980Z,3.95
2023-08-25T02:01:42.014Z,7.15
2023-08-25T02:04:10.417Z,6.30
2023-08-25T02:06:38.704Z,5.47
2023-08-25T02:09:07.036Z,4.47
2023-08-25T02:11:34.979Z,4.30
2023-08-25T02:14:02.968Z,3.80
2023-08-25T02:16:30.966Z,4.85
2023-08-25T02:18:58.997Z,6.18
2023-08-25T02:21:26.954Z,5.15
2023-08-25T02:23:54.855Z,6.62
2023-08-25T02:26:23.011Z,6.50
2023-08-25T02:28:50.890Z,5.82
2023-08-25T02:31:18.822Z,6.47
2023-08-25T02:33:47.503Z,6.53
2023-08-25T02:36:15.567Z,4.22
2023-08-25T02:38:43.449Z,4.85
2023-08-25T02:41:11.430Z,5.22
2023-08-25T02:43:39.337Z,5.40
2023-08-25T02:46:07.315Z,6.65
2023-08-25T02:48:35.258Z,9.95
2023-08-25T02:51:03.195Z,6.45
2023-08-25T02:53:31.169Z,7.20
2023-08-25T02:55:59.155Z,6.90
2023-08-25T02:58:27.255Z,5.45
2023-08-25T03:00:55.219Z,6.05
2023-08-25T03:03:23.359Z,7.55
2023-08-25T03:05:52.355Z,4.87
2023-08-25T03:08:22.677Z,4.53
2023-08-25T03:10:51.678Z,5.12
2023-08-25T03:13:26.776Z,5.45
2023-08-25T03:15:56.902Z,7.00
2023-08-25T03:18:25.047Z,3.85
2023-08-25T03:20:54.359Z,4.05
2023-08-25T03:23:22.677Z,6.62
2023-08-25T03:25:50.670Z,6.32
2023-08-25T03:28:18.647Z,8.45
2023-08-25T03:30:46.603Z,4.40
2023-08-25T03:33:14.534Z,3.92
2023-08-25T03:35:42.491Z,4.53
2023-08-25T03:38:10.897Z,6.87
2023-08-25T03:40:38.782Z,3.65
2023-08-25T03:43:06.789Z,5.57
2023-08-25T03:45:37.182Z,5.15
2023-08-25T03:48:05.663Z,5.45
2023-08-25T03:50:33.559Z,4.53
2023-08-25T03:53:01.527Z,4.75
2023-08-25T03:55:29.373Z,5.40
2023-08-25T03:57:57.373Z,4.65
2023-08-25T04:00:25.345Z,4.28
2023-08-25T04:02:53.553Z,5.12
2023-08-25T04:05:21.493Z,5.35
2023-08-25T04:07:51.749Z,9.68
2023-08-25T04:10:19.998Z,5.12
2023-08-25T04:12:47.964Z,6.35
2023-08-25T04:15:15.945Z,6.72
2023-08-25T04:17:43.865Z,6.60
2023-08-25T04:20:12.752Z,3.62
2023-08-25T04:22:41.859Z,3.60
2023-08-25T04:25:09.994Z,4.97
2023-08-25T04:27:39.157Z,7.25
2023-08-25T04:30:08.479Z,4.72
2023-08-25T04:32:36.482Z,4.45
2023-08-25T04:35:05.857Z,3.87
2023-08-25T04:37:33.825Z,4.65
2023-08-25T04:40:02.562Z,5.65
2023-08-25T04:42:30.524Z,5.70
2023-08-25T04:44:58.552Z,3.12
2023-08-25T04:47:28.096Z,6.20
2023-08-25T04:49:58.296Z,5.55
2023-08-25T04:52:26.539Z,5.40
2023-08-25T04:54:54.479Z,3.65
2023-08-25T04:57:22.441Z,5.32
2023-08-25T04:59:50.651Z,5.80
2023-08-25T05:02:19.840Z,5.80
2023-08-25T05:04:47.781Z,7.00
2023-08-25T05:07:15.874Z,6.07
2023-08-25T05:09:43.988Z,5.35
2023-08-25T05:12:12.994Z,7.15
2023-08-25T05:14:41.144Z,5.37
2023-08-25T05:17:09.079Z,5.62
2023-08-25T05:19:37.070Z,4.35
2023-08-25T05:22:05.028Z,5.35
2023-08-25T05:24:33.567Z,4.95
2023-08-25T05:27:01.504Z,6.05
2023-08-25T05:29:30.506Z,4.37
2023-08-25T05:31:58.419Z,3.25
2023-08-25T05:34:28.644Z,4.18
2023-08-25T05:36:56.948Z,6.72
2023-08-25T05:39:24.927Z,3.85
2023-08-25T05:41:53.128Z,3.55
2023-08-25T05:44:21.112Z,3.42
2023-08-25T05:46:52.677Z,6.12
2023-08-25T05:49:20.594Z,3.70
2023-08-25T05:51:51.926Z,4.72
2023-08-25T05:54:22.546Z,4.80
2023-08-25T05:56:50.442Z,4.45
2023-08-25T05:59:19.617Z,4.78
2023-08-25T06:01:50.468Z,5.93
2023-08-25T06:04:19.359Z,4.90
2023-08-25T06:06:47.255Z,3.97
2023-08-25T06:09:16.484Z,3.95
2023-08-25T06:11:44.448Z,5.45
2023-08-25T06:14:16.572Z,6.72
2023-08-25T06:16:44.502Z,6.20
2023-08-25T06:19:12.575Z,6.95
2023-08-25T06:21:43.166Z,6.55
2023-08-25T06:24:12.557Z,6.57
2023-08-25T06:26:40.570Z,6.12
2023-08-25T06:29:08.458Z,14.80
2023-08-25T06:31:36.575Z,11.93
2023-08-25T06:34:10.837Z,9.70
2023-08-25T06:36:41.824Z,13.10
2023-08-25T06:39:09.811Z,11.80
2023-08-25T06:41:38.064Z,7.97
2023-08-25T06:44:06.365Z,5.85
2023-08-25T06:46:35.230Z,5.75
2023-08-25T06:49:03.232Z,7.30
2023-08-25T06:51:31.160Z,6.70
2023-08-25T06:54:00.233Z,9.75
2023-08-25T06:56:28.264Z,8.18
2023-08-25T06:58:56.155Z,9.18
2023-08-25T07:01:24.218Z,6.43
2023-08-25T07:03:52.147Z,9.13
2023-08-25T07:06:20.826Z,9.45
2023-08-25T07:08:48.779Z,10.60
2023-08-25T07:11:16.890Z,7.22
2023-08-25T07:13:44.839Z,5.60
2023-08-25T07:16:13.522Z,4.82
2023-08-25T07:18:41.544Z,9.88
2023-08-25T07:21:09.516Z,8.32
2023-08-25T07:23:37.379Z,7.40
2023-08-25T07:26:05.836Z,6.60
2023-08-25T07:28:33.752Z,6.95
2023-08-25T07:31:02.054Z,10.05
2023-08-25T07:33:30.327Z,8.95
2023-08-25T07:36:00.160Z,10.25
2023-08-25T07:38:28.265Z,12.57
2023-08-25T07:40:56.559Z,8.48
2023-08-25T07:43:24.920Z,12.93
2023-08-25T07:45:52.866Z,10.07
2023-08-25T07:48:20.918Z,11.38
2023-08-25T07:50:48.982Z,10.43
2023-08-25T07:53:17.463Z,9.40
2023-08-25T07:55:45.506Z,13.35
2023-08-25T07:58:13.601Z,13.18
2023-08-25T08:00:41.680Z,11.63
2023-08-25T08:03:11.239Z,7.97
2023-08-25T08:05:40.662Z,10.50
2023-08-25T08:08:08.974Z,8.65
2023-08-25T08:10:36.876Z,7.72
2023-08-25T08:13:05.694Z,13.23
2023-08-25T08:15:33.890Z,9.38
2023-08-25T08:18:02.242Z,9.88
2023-08-25T08:20:30.187Z,7.95
2023-08-25T08:22:58.220Z,8.23
2023-08-25T08:25:26.636Z,7.22
2023-08-25T08:27:54.946Z,6.43
2023-08-25T08:30:23.348Z,7.35
2023-08-25T08:32:52.340Z,4.60
2023-08-25T08:35:20.658Z,5.60
2023-08-25T08:37:48.706Z,4.85
2023-08-25T08:40:17.511Z,8.20
2023-08-25T08:42:47.630Z,3.62
2023-08-25T08:45:20.216Z,4.78
2023-08-25T08:47:48.196Z,5.68
2023-08-25T08:50:16.405Z,5.20
2023-08-25T08:52:46.406Z,5.93
2023-08-25T08:55:14.695Z,8.73
2023-08-25T08:57:42.773Z,4.22
2023-08-25T09:00:14.610Z,4.37
2023-08-25T09:02:45.872Z,3.83
2023-08-25T09:05:15.429Z,3.22
2023-08-25T09:07:45.015Z,5.20
2023-08-25T09:10:13.119Z,4.57
2023-08-25T09:12:41.159Z,3.47
2023-08-25T09:15:09.842Z,6.55
2023-08-25T09:17:38.908Z,4.43
2023-08-25T09:20:07.797Z,4.65
2023-08-25T09:22:37.340Z,3.75
2023-08-25T09:25:05.565Z,3.78
2023-08-25T09:27:34.259Z,5.55
2023-08-25T09:30:06.465Z,4.20
2023-08-25T09:32:35.667Z,4.25
2023-08-25T09:35:14.747Z,6.07
2023-08-25T09:37:46.312Z,3.92
2023-08-25T09:40:15.421Z,4.30
2023-08-25T09:42:43.591Z,4.03
2023-08-25T09:45:13.291Z,6.60
2023-08-25T09:47:44.264Z,5.45
2023-08-25T09:50:18.971Z,3.80
2023-08-25T09:52:48.790Z,4.30
2023-08-25T09:55:17.562Z,4.93
2023-08-25T09:57:51.123Z,4.30
2023-08-25T10:00:21.868Z,6.35
2023-08-25T10:02:51.903Z,4.47
2023-08-25T10:05:20.238Z,4.18
2023-08-25T10:07:50.030Z,3.78
2023-08-25T10:10:18.082Z,8.48
2023-08-25T10:12:48.304Z,3.97
2023-08-25T10:15:19.371Z,3.78
2023-08-25T10:17:47.938Z,3.62
2023-08-25T10:20:17.440Z,3.80
2023-08-25T10:22:49.802Z,5.03
2023-08-25T10:25:20.168Z,3.75
2023-08-25T10:27:48.592Z,4.47
2023-08-25T10:30:17.478Z,5.30
2023-08-25T10:32:53.618Z,5.80
2023-08-25T10:35:39.813Z,3.72
2023-08-25T10:38:32.470Z,3.87
2023-08-25T10:41:13.576Z,5.35
2023-08-25T10:43:43.398Z,4.72
2023-08-25T10:46:12.610Z,5.43
2023-08-25T10:48:41.883Z,5.20
2023-08-25T10:51:21.247Z,6.90
2023-08-25T10:53:53.803Z,3.47
2023-08-25T10:56:23.737Z,6.97
2023-08-25T10:59:12.224Z,5.68
2023-08-25T11:01:40.206Z,5.40
2023-08-25T11:04:10.724Z,4.80
2023-08-25T11:06:49.908Z,4.75
2023-08-25T11:09:20.812Z,4.65
2023-08-25T11:11:57.019Z,4.93
2023-08-25T11:14:30.629Z,4.62
2023-08-25T11:16:59.869Z,6.50
2023-08-25T11:19:30.576Z,6.82
2023-08-25T11:22:12.343Z,4.82
2023-08-25T11:24:40.918Z,5.97
2023-08-25T11:27:13.632Z,6.00
2023-08-25T11:29:47.544Z,6.43
2023-08-25T11:32:15.910Z,5.20
2023-08-25T11:34:47.737Z,6.65
2023-08-25T11:37:16.572Z,5.45
2023-08-25T11:39:45.853Z,5.37
2023-08-25T11:42:14.661Z,4.68
2023-08-25T11:44:43.415Z,5.85
2023-08-25T11:47:12.651Z,7.12
2023-08-25T11:49:43.957Z,5.53
2023-08-25T11:52:12.529Z,5.85
2023-08-25T11:54:51.326Z,4.12
2023-08-25T11:57:21.244Z,7.47
2023-08-25T11:59:51.628Z,7.35
2023-08-25T12:02:21.717Z,7.28
2023-08-25T12:05:00.130Z,4.28
2023-08-25T12:07:30.797Z,4.60
2023-08-25T12:10:00.788Z,5.50
2023-08-25T12:12:33.497Z,5.93
2023-08-25T12:15:01.519Z,4.18
2023-08-25T12:17:30.968Z,4.80
2023-08-25T12:19:59.525Z,6.82
2023-08-25T12:22:27.703Z,5.10
2023-08-25T12:24:55.680Z,5.85
2023-08-25T12:27:24.406Z,7.37
2023-08-25T12:29:52.875Z,4.35
2023-08-25T12:32:20.808Z,5.35
2023-08-25T12:34:48.840Z,4.05
2023-08-25T12:37:17.289Z,6.32
2023-08-25T12:39:45.246Z,4.70
2023-08-25T12:42:13.167Z,4.65
2023-08-25T12:44:41.112Z,5.20
2023-08-25T12:47:09.582Z,4.60
2023-08-25T12:49:37.630Z,4.15
2023-08-25T12:52:05.938Z,4.60
2023-08-25T12:54:33.993Z,4.47
2023-08-25T12:57:01.901Z,5.15
2023-08-25T12:59:29.872Z,4.60
2023-08-25T13:01:57.784Z,4.37
2023-08-25T13:04:25.741Z,6.05
2023-08-25T13:06:53.712Z,5.55
2023-08-25T13:09:22.881Z,5.53
2023-08-25T13:11:50.802Z,5.20
2023-08-25T13:14:18.862Z,5.68
2023-08-25T13:16:46.796Z,5.30
2023-08-25T13:19:16.022Z,6.00
2023-08-25T13:21:44.118Z,4.07
2023-08-25T13:24:12.054Z,4.53
2023-08-25T13:26:39.964Z,6.72
2023-08-25T13:29:07.935Z,6.87
2023-08-25T13:31:35.830Z,4.60
2023-08-25T13:34:03.889Z,4.60
2023-08-25T13:36:31.822Z,6.15
2023-08-25T13:39:02.552Z,4.65
2023-08-25T13:41:31.120Z,5.50
2023-08-25T13:43:59.071Z,5.43
2023-08-25T13:46:27.037Z,4.97
2023-08-25T13:48:55.055Z,6.07
2023-08-25T13:51:22.932Z,4.12
2023-08-25T13:53:51.176Z,5.82
2023-08-25T13:56:19.505Z,5.62
2023-08-25T13:58:47.958Z,4.53
2023-08-25T14:01:17.719Z,6.85
2023-08-25T14:03:45.789Z,9.45
2023-08-25T14:06:14.296Z,5.22
2023-08-25T14:08:43.215Z,8.52
2023-08-25T14:11:11.496Z,5.47
2023-08-25T14:13:39.483Z,5.50
2023-08-25T14:16:07.911Z,5.43
2023-08-25T14:18:35.840Z,6.65
2023-08-25T14:21:04.355Z,5.00
2023-08-25T14:23:32.638Z,8.70
2023-08-25T14:26:00.616Z,4.78
2023-08-25T14:28:28.819Z,4.80
2023-08-25T14:30:56.771Z,4.78
2023-08-25T14:33:24.752Z,5.32
2023-08-25T14:35:53.266Z,5.95
2023-08-25T14:38:21.234Z,5.62
2023-08-25T14:40:49.237Z,6.55
2023-08-25T14:43:17.119Z,8.00
2023-08-25T14:45:45.049Z,5.25
2023-08-25T14:48:13.354Z,5.28
2023-08-25T14:50:41.297Z,5.07
2023-08-25T14:53:11.590Z,4.72
2023-08-25T14:55:39.941Z,5.35
2023-08-25T14:58:07.853Z,6.57
2023-08-25T15:00:35.759Z,5.45
2023-08-25T15:03:03.842Z,4.53
2023-08-25T15:05:31.899Z,5.03
2023-08-25T15:08:00.774Z,6.25
2023-08-25T15:10:28.687Z,6.18
2023-08-25T15:12:56.625Z,4.57
2023-08-25T15:15:24.811Z,7.07
2023-08-25T15:17:53.183Z,5.80
2023-08-25T15:20:21.490Z,6.82
2023-08-25T15:22:49.458Z,5.07
2023-08-25T15:25:17.612Z,4.68
2023-08-25T15:27:46.497Z,6.85
2023-08-25T15:30:14.757Z,8.77
2023-08-25T15:32:42.768Z,5.87
2023-08-25T15:35:10.863Z,4.78
2023-08-25T15:37:39.112Z,8.20
2023-08-25T15:40:07.774Z,6.93
2023-08-25T15:42:37.408Z,4.55
2023-08-25T15:45:05.878Z,6.15
2023-08-25T15:47:36.297Z,5.72
2023-08-25T15:50:13.016Z,6.55
2023-08-25T15:52:41.058Z,5.25
2023-08-25T15:55:09.378Z,5.80
2023-08-25T15:57:43.222Z,5.55
2023-08-25T16:00:12.586Z,6.35
2023-08-25T16:02:40.699Z,8.55
2023-08-25T16:05:11.684Z,5.65
2023-08-25T16:07:45.440Z,7.07
2023-08-25T16:10:14.194Z,5.18
2023-08-25T16:12:42.313Z,5.10
2023-08-25T16:15:10.817Z,5.93
2023-08-25T16:17:38.880Z,5.80
2023-08-25T16:20:10.402Z,7.20
2023-08-25T16:22:39.984Z,5.95
2023-08-25T16:25:09.038Z,6.87
2023-08-25T16:27:38.752Z,5.87
2023-08-25T16:30:08.210Z,6.43
2023-08-25T16:32:37.045Z,6.90
2023-08-25T16:35:12.593Z,7.50
2023-08-25T16:37:40.525Z,6.30
2023-08-25T16:40:09.415Z,7.95
2023-08-25T16:42:39.647Z,6.45
2023-08-25T16:45:08.232Z,8.35
2023-08-25T16:47:38.959Z,7.80
2023-08-25T16:50:10.095Z,6.20
2023-08-25T16:52:38.343Z,5.60
2023-08-25T16:55:06.655Z,6.32
2023-08-25T16:57:34.626Z,5.72
2023-08-25T17:00:02.589Z,7.03
2023-08-25T17:02:30.577Z,5.55
2023-08-25T17:05:01.392Z,5.12
2023-08-25T17:07:35.362Z,6.28
2023-08-25T17:10:03.268Z,7.70
2023-08-25T17:12:31.136Z,7.70
2023-08-25T17:14:59.229Z,6.72
2023-08-25T17:17:27.702Z,8.52
2023-08-25T17:19:55.871Z,9.25
2023-08-25T17:22:23.934Z,9.20
2023-08-25T17:24:51.965Z,6.82
2023-08-25T17:27:20.120Z,6.40
2023-08-25T17:29:48.058Z,7.62
2023-08-25T17:32:16.138Z,8.07
2023-08-25T17:34:44.020Z,8.20
2023-08-25T17:37:15.265Z,7.20
2023-08-25T17:39:44.392Z,7.35
2023-08-25T17:42:13.227Z,8.05
2023-08-25T17:44:41.212Z,7.80
2023-08-25T17:47:09.112Z,8.70
2023-08-25T17:49:37.071Z,7.30
2023-08-25T17:52:05.468Z,7.80
2023-08-25T17:54:33.795Z,6.95
2023-08-25T17:57:01.807Z,7.18
2023-08-25T17:59:29.776Z,8.93
2023-08-25T18:01:57.829Z,8.13
2023-08-25T18:04:25.817Z,7.68
2023-08-25T18:06:54.761Z,8.82
2023-08-25T18:09:24.279Z,8.88
2023-08-25T18:11:52.231Z,8.95
2023-08-25T18:14:20.134Z,9.82
2023-08-25T18:16:48.782Z,9.90
2023-08-25T18:19:17.147Z,8.52
2023-08-25T18:21:45.007Z,9.68
2023-08-25T18:24:12.923Z,8.35
2023-08-25T18:26:44.070Z,9.98
2023-08-25T18:29:12.757Z,9.38
2023-08-25T18:31:40.782Z,10.88
2023-08-25T18:34:09.094Z,9.93
2023-08-25T18:36:37.008Z,11.77
2023-08-25T18:39:06.583Z,10.75
2023-08-25T18:41:34.718Z,10.05
2023-08-25T18:44:03.203Z,11.45
2023-08-25T18:46:31.132Z,12.57
2023-08-25T18:48:59.167Z,11.07
2023-08-25T18:51:27.231Z,13.90
2023-08-25T18:53:55.310Z,12.75
2023-08-25T18:56:23.707Z,11.75
2023-08-25T18:58:51.800Z,10.63
2023-08-25T19:01:20.675Z,11.65
2023-08-25T19:03:48.829Z,9.95
2023-08-25T19:06:16.921Z,10.52
2023-08-25T19:08:45.187Z,9.15
2023-08-25T19:11:14.086Z,9.30
2023-08-25T19:13:44.034Z,8.52
2023-08-25T19:16:12.273Z,9.65
2023-08-25T19:18:40.333Z,8.93
2023-08-25T19:21:09.776Z,7.93
2023-08-25T19:23:37.785Z,9.00
2023-08-25T19:26:12.413Z,9.40
2023-08-25T19:28:42.894Z,11.68
2023-08-25T19:31:14.041Z,10.48
2023-08-25T19:33:42.041Z,9.98
2023-08-25T19:36:10.133Z,9.98
2023-08-25T19:38:38.521Z,10.50
2023-08-25T19:41:08.041Z,10.30
2023-08-25T19:43:38.388Z,8.98
2023-08-25T19:46:06.406Z,10.55
2023-08-25T19:48:37.814Z,9.52
2023-08-25T19:51:08.717Z,8.98
2023-08-25T19:53:37.110Z,10.85
2023-08-25T19:56:05.754Z,7.97
2023-08-25T19:58:34.298Z,7.68
2023-08-25T20:01:03.015Z,7.72
2023-08-25T20:03:31.485Z,10.48
2023-08-25T20:06:07.227Z,8.57
2023-08-25T20:08:39.617Z,7.32
2023-08-25T20:11:09.606Z,7.37
2023-08-25T20:13:40.635Z,7.75
2023-08-25T20:16:08.807Z,10.43
2023-08-25T20:18:37.970Z,7.50
2023-08-25T20:21:06.891Z,7.35
2023-08-25T20:23:38.187Z,6.90
2023-08-25T20:26:06.707Z,6.65
2023-08-25T20:28:38.926Z,5.78
2023-08-25T20:31:07.396Z,6.95
2023-08-25T20:33:35.384Z,6.82
2023-08-25T20:36:05.630Z,7.20
2023-08-25T20:38:34.644Z,7.40
2023-08-25T20:41:02.805Z,5.82
2023-08-25T20:43:30.748Z,7.10
2023-08-25T20:46:19.178Z,5.87
2023-08-25T20:48:50.335Z,5.40
2023-08-25T20:51:25.797Z,6.32
2023-08-25T20:53:56.149Z,5.70
2023-08-25T20:56:25.320Z,7.57
2023-08-25T20:58:53.892Z,6.93
2023-08-25T21:01:22.027Z,6.28
2023-08-25T21:03:50.691Z,5.28
2023-08-25T21:06:18.923Z,6.05
2023-08-25T21:08:46.892Z,8.30
2023-08-25T21:11:14.805Z,6.20
2023-08-25T21:13:42.868Z,6.07
2023-08-25T21:16:10.947Z,7.25
2023-08-25T21:18:38.883Z,5.95
2023-08-25T21:21:08.669Z,5.87
2023-08-25T21:23:36.551Z,6.30
2023-08-25T21:26:04.845Z,6.10
2023-08-25T21:28:32.923Z,7.05
2023-08-25T21:31:01.648Z,7.45
2023-08-25T21:33:30.510Z,6.90
2023-08-25T21:35:58.472Z,6.57
2023-08-25T21:38:26.433Z,8.13
2023-08-25T21:40:54.426Z,7.68
2023-08-25T21:43:22.405Z,7.53
2023-08-25T21:45:51.206Z,6.90
2023-08-25T21:48:19.172Z,8.30
2023-08-25T21:50:48.308Z,6.85
2023-08-25T21:53:16.290Z,7.35
2023-08-25T21:55:46.243Z,7.40
2023-08-25T21:58:14.187Z,8.27
2023-08-25T22:00:42.342Z,7.10
2023-08-25T22:03:10.644Z,8.73
2023-08-25T22:05:39.459Z,8.30
2023-08-25T22:08:09.042Z,7.00
2023-08-25T22:10:40.690Z,6.75
2023-08-25T22:13:09.877Z,9.10
2023-08-25T22:15:38.855Z,6.72
2023-08-25T22:18:07.409Z,7.12
2023-08-25T22:20:35.576Z,6.25
2023-08-25T22:23:03.612Z,6.15
2023-08-25T22:25:31.840Z,7.32
2023-08-25T22:27:59.917Z,8.43
2023-08-25T22:30:27.927Z,6.97
2023-08-25T22:35:27.327Z,6.50
2023-08-25T22:37:55.513Z,6.28
2023-08-25T22:40:23.803Z,6.75
2023-08-25T22:42:51.663Z,7.05
2023-08-25T22:45:19.918Z,8.00
2023-08-25T22:47:47.974Z,6.47
2023-08-25T22:50:16.002Z,6.78
2023-08-25T22:52:43.912Z,6.07
2023-08-25T22:55:11.979Z,6.05
2023-08-25T22:57:39.865Z,5.85
2023-08-25T23:00:10.898Z,7.32
2023-08-25T23:02:39.178Z,7.03
2023-08-25T23:05:07.764Z,6.25
2023-08-25T23:07:35.672Z,6.32
2023-08-25T23:10:04.703Z,8.00
2023-08-25T23:12:32.655Z,6.35
2023-08-25T23:15:00.715Z,6.03
2023-08-25T23:17:28.661Z,6.87
2023-08-25T23:19:57.279Z,7.53
2023-08-25T23:22:25.299Z,7.00
2023-08-25T23:24:53.890Z,6.93
2023-08-25T23:27:21.891Z,7.22
2023-08-25T23:29:49.852Z,7.25
2023-08-25T23:32:17.766Z,7.93
2023-08-25T23:34:45.704Z,6.75
2023-08-25T23:37:13.778Z,6.93
2023-08-25T23:39:41.681Z,7.00
2023-08-25T23:42:09.534Z,7.25
2023-08-25T23:44:37.430Z,6.93
2023-08-25T23:47:05.497Z,8.13
2023-08-25T23:49:33.568Z,8.68
2023-08-25T23:52:01.498Z,8.23
2023-08-25T23:54:31.131Z,7.82
2023-08-25T23:56:59.061Z,10.15
2023-08-25T23:59:26.918Z,8.73
